sensor_id;sensor_type;location;lat;lon;timestamp;pressure;altitude;pressure_sealevel;temperature;humidity
35577;BME280;21680;52.400;16.920;2023-01-29T00:01:08;101775.90;;;-1.05;77.13
35577;BME280;21680;52.400;16.920;2023-01-29T00:03:34;101777.75;;;-1.09;77.12
35577;BME280;21680;52.400;16.920;2023-01-29T00:06:04;101774.19;;;-1.11;77.25
35577;BME280;21680;52.400;16.920;2023-01-29T00:08:34;101769.23;;;-1.12;77.22
35577;BME280;21680;52.400;16.920;2023-01-29T00:11:04;101759.53;;;-1.15;77.25
35577;BME280;21680;52.400;16.920;2023-01-29T00:13:30;101758.25;;;-1.18;77.36
35577;BME280;21680;52.400;16.920;2023-01-29T00:15:57;101758.00;;;-1.21;77.39
35577;BME280;21680;52.400;16.920;2023-01-29T00:18:23;101753.58;;;-1.23;77.45
35577;BME280;21680;52.400;16.920;2023-01-29T00:20:49;101745.80;;;-1.25;77.45
35577;BME280;21680;52.400;16.920;2023-01-29T00:23:16;101736.96;;;-1.28;77.39
35577;BME280;21680;52.400;16.920;2023-01-29T00:25:41;101733.39;;;-1.32;77.43
35577;BME280;21680;52.400;16.920;2023-01-29T00:28:07;101728.58;;;-1.35;77.41
35577;BME280;21680;52.400;16.920;2023-01-29T00:30:34;101724.81;;;-1.39;77.26
35577;BME280;21680;52.400;16.920;2023-01-29T00:32:59;101717.90;;;-1.42;77.41
35577;BME280;21680;52.400;16.920;2023-01-29T00:35:25;101720.79;;;-1.46;77.42
35577;BME280;21680;52.400;16.920;2023-01-29T00:37:50;101724.04;;;-1.50;77.52
35577;BME280;21680;52.400;16.920;2023-01-29T00:40:16;101719.41;;;-1.53;77.69
35577;BME280;21680;52.400;16.920;2023-01-29T00:42:43;101715.67;;;-1.55;77.54
35577;BME280;21680;52.400;16.920;2023-01-29T00:45:28;101708.58;;;-1.59;77.55
35577;BME280;21680;52.400;16.920;2023-01-29T00:47:53;101709.73;;;-1.61;77.77
35577;BME280;21680;52.400;16.920;2023-01-29T00:50:19;101717.91;;;-1.65;77.58
35577;BME280;21680;52.400;16.920;2023-01-29T00:52:44;101716.96;;;-1.68;77.47
35577;BME280;21680;52.400;16.920;2023-01-29T00:55:10;101719.00;;;-1.70;77.63
35577;BME280;21680;52.400;16.920;2023-01-29T00:57:36;101715.80;;;-1.72;77.75
35577;BME280;21680;52.400;16.920;2023-01-29T01:00:04;101712.25;;;-1.74;77.69
35577;BME280;21680;52.400;16.920;2023-01-29T01:02:29;101711.98;;;-1.77;77.50
35577;BME280;21680;52.400;16.920;2023-01-29T01:05:15;101718.05;;;-1.80;77.70
35577;BME280;21680;52.400;16.920;2023-01-29T01:07:51;101723.61;;;-1.83;77.75
35577;BME280;21680;52.400;16.920;2023-01-29T01:10:21;101729.85;;;-1.85;77.70
35577;BME280;21680;52.400;16.920;2023-01-29T01:15:18;101724.16;;;-1.89;77.71
35577;BME280;21680;52.400;16.920;2023-01-29T01:17:43;101722.85;;;-1.92;77.68
35577;BME280;21680;52.400;16.920;2023-01-29T01:20:10;101720.69;;;-1.95;77.87
35577;BME280;21680;52.400;16.920;2023-01-29T01:22:35;101714.52;;;-1.97;77.64
35577;BME280;21680;52.400;16.920;2023-01-29T01:25:01;101711.15;;;-1.98;77.66
35577;BME280;21680;52.400;16.920;2023-01-29T01:27:26;101713.40;;;-1.99;77.76
35577;BME280;21680;52.400;16.920;2023-01-29T01:29:51;101715.59;;;-2.02;77.81
35577;BME280;21680;52.400;16.920;2023-01-29T01:32:17;101710.11;;;-2.04;77.83
35577;BME280;21680;52.400;16.920;2023-01-29T01:34:42;101707.42;;;-2.07;77.97
35577;BME280;21680;52.400;16.920;2023-01-29T01:37:10;101706.52;;;-2.08;78.09
35577;BME280;21680;52.400;16.920;2023-01-29T01:39:35;101705.45;;;-2.09;77.97
35577;BME280;21680;52.400;16.920;2023-01-29T01:42:00;101706.46;;;-2.10;77.93
35577;BME280;21680;52.400;16.920;2023-01-29T01:45:01;101715.02;;;-2.12;77.86
35577;BME280;21680;52.400;16.920;2023-01-29T01:47:30;101717.25;;;-2.13;77.87
35577;BME280;21680;52.400;16.920;2023-01-29T01:50:02;101712.84;;;-2.14;78.15
35577;BME280;21680;52.400;16.920;2023-01-29T01:52:34;101706.02;;;-2.14;78.23
35577;BME280;21680;52.400;16.920;2023-01-29T01:55:01;101705.80;;;-2.15;78.22
35577;BME280;21680;52.400;16.920;2023-01-29T01:57:28;101708.88;;;-2.19;78.12
35577;BME280;21680;52.400;16.920;2023-01-29T01:59:59;101712.88;;;-2.19;78.28
35577;BME280;21680;52.400;16.920;2023-01-29T02:02:35;101707.77;;;-2.21;78.20
35577;BME280;21680;52.400;16.920;2023-01-29T02:05:19;101706.47;;;-2.23;78.35
35577;BME280;21680;52.400;16.920;2023-01-29T02:08:03;101704.30;;;-2.26;78.25
35577;BME280;21680;52.400;16.920;2023-01-29T02:10:48;101710.20;;;-2.28;78.11
35577;BME280;21680;52.400;16.920;2023-01-29T02:13:14;101712.61;;;-2.30;78.57
35577;BME280;21680;52.400;16.920;2023-01-29T02:15:46;101706.63;;;-2.32;78.59
35577;BME280;21680;52.400;16.920;2023-01-29T02:18:16;101698.91;;;-2.32;78.35
35577;BME280;21680;52.400;16.920;2023-01-29T02:21:01;101697.48;;;-2.33;78.57
35577;BME280;21680;52.400;16.920;2023-01-29T02:26:27;101700.42;;;-2.34;78.47
35577;BME280;21680;52.400;16.920;2023-01-29T02:31:59;101705.89;;;-2.32;78.89
35577;BME280;21680;52.400;16.920;2023-01-29T02:34:45;101709.44;;;-2.31;78.91
35577;BME280;21680;52.400;16.920;2023-01-29T02:40:45;101681.62;;;-2.23;79.06
35577;BME280;21680;52.400;16.920;2023-01-29T02:43:21;101687.86;;;-2.19;78.90
35577;BME280;21680;52.400;16.920;2023-01-29T02:46:17;101689.31;;;-2.17;78.85
35577;BME280;21680;52.400;16.920;2023-01-29T02:48:56;101687.45;;;-2.14;79.15
35577;BME280;21680;52.400;16.920;2023-01-29T02:54:20;101688.63;;;-2.09;79.17
35577;BME280;21680;52.400;16.920;2023-01-29T02:57:15;101686.71;;;-2.09;79.28
35577;BME280;21680;52.400;16.920;2023-01-29T02:59:50;101688.98;;;-2.09;79.23
35577;BME280;21680;52.400;16.920;2023-01-29T03:02:22;101687.73;;;-2.10;79.56
35577;BME280;21680;52.400;16.920;2023-01-29T03:04:55;101684.39;;;-2.11;79.44
35577;BME280;21680;52.400;16.920;2023-01-29T03:07:26;101684.24;;;-2.09;79.43
35577;BME280;21680;52.400;16.920;2023-01-29T03:12:51;101676.63;;;-2.06;79.62
35577;BME280;21680;52.400;16.920;2023-01-29T03:15:25;101673.36;;;-2.03;79.77
35577;BME280;21680;52.400;16.920;2023-01-29T03:17:57;101676.57;;;-2.01;79.91
35577;BME280;21680;52.400;16.920;2023-01-29T03:20:29;101668.39;;;-1.99;79.83
35577;BME280;21680;52.400;16.920;2023-01-29T03:23:02;101664.40;;;-1.98;79.88
35577;BME280;21680;52.400;16.920;2023-01-29T03:25:29;101657.27;;;-1.95;80.00
35577;BME280;21680;52.400;16.920;2023-01-29T03:28:16;101650.99;;;-1.94;80.08
35577;BME280;21680;52.400;16.920;2023-01-29T03:31:06;101649.30;;;-1.91;80.04
35577;BME280;21680;52.400;16.920;2023-01-29T03:33:57;101642.13;;;-1.91;80.03
35577;BME280;21680;52.400;16.920;2023-01-29T03:36:36;101637.60;;;-1.90;79.91
35577;BME280;21680;52.400;16.920;2023-01-29T03:39:11;101639.89;;;-1.89;79.89
35577;BME280;21680;52.400;16.920;2023-01-29T03:41:46;101631.84;;;-1.89;80.00
35577;BME280;21680;52.400;16.920;2023-01-29T03:44:18;101625.19;;;-1.88;79.93
35577;BME280;21680;52.400;16.920;2023-01-29T03:47:11;101617.49;;;-1.89;80.13
35577;BME280;21680;52.400;16.920;2023-01-29T03:58:22;101609.70;;;-1.84;80.11
35577;BME280;21680;52.400;16.920;2023-01-29T04:00:51;101607.09;;;-1.84;80.09
35577;BME280;21680;52.400;16.920;2023-01-29T04:03:23;101610.08;;;-1.83;80.10
35577;BME280;21680;52.400;16.920;2023-01-29T04:06:08;101612.36;;;-1.83;80.07
35577;BME280;21680;52.400;16.920;2023-01-29T04:08:44;101609.40;;;-1.82;80.08
35577;BME280;21680;52.400;16.920;2023-01-29T04:11:13;101605.75;;;-1.81;80.11
35577;BME280;21680;52.400;16.920;2023-01-29T04:13:41;101594.71;;;-1.81;80.11
35577;BME280;21680;52.400;16.920;2023-01-29T04:16:13;101595.95;;;-1.81;80.28
35577;BME280;21680;52.400;16.920;2023-01-29T04:18:44;101599.27;;;-1.80;80.26
35577;BME280;21680;52.400;16.920;2023-01-29T04:21:10;101593.88;;;-1.79;80.31
35577;BME280;21680;52.400;16.920;2023-01-29T04:23:36;101581.05;;;-1.81;80.01
35577;BME280;21680;52.400;16.920;2023-01-29T04:26:24;101576.67;;;-1.81;80.14
35577;BME280;21680;52.400;16.920;2023-01-29T04:32:10;101574.79;;;-1.79;80.25
35577;BME280;21680;52.400;16.920;2023-01-29T04:37:44;101573.05;;;-1.78;80.38
35577;BME280;21680;52.400;16.920;2023-01-29T04:40:22;101571.30;;;-1.78;80.21
35577;BME280;21680;52.400;16.920;2023-01-29T04:43:07;101563.57;;;-1.79;80.43
35577;BME280;21680;52.400;16.920;2023-01-29T04:45:47;101551.65;;;-1.80;80.26
35577;BME280;21680;52.400;16.920;2023-01-29T04:48:26;101560.42;;;-1.79;80.40
35577;BME280;21680;52.400;16.920;2023-01-29T04:53:39;101547.40;;;-1.82;80.25
35577;BME280;21680;52.400;16.920;2023-01-29T04:56:15;101544.52;;;-1.85;80.26
35577;BME280;21680;52.400;16.920;2023-01-29T04:58:50;101542.14;;;-1.90;80.21
35577;BME280;21680;52.400;16.920;2023-01-29T05:01:20;101545.49;;;-1.97;80.20
35577;BME280;21680;52.400;16.920;2023-01-29T05:03:52;101542.97;;;-2.00;80.47
35577;BME280;21680;52.400;16.920;2023-01-29T05:06:19;101549.23;;;-2.02;80.61
35577;BME280;21680;52.400;16.920;2023-01-29T05:08:46;101551.46;;;-2.04;80.59
35577;BME280;21680;52.400;16.920;2023-01-29T05:11:14;101550.89;;;-2.06;80.77
35577;BME280;21680;52.400;16.920;2023-01-29T05:13:41;101547.55;;;-2.06;80.73
35577;BME280;21680;52.400;16.920;2023-01-29T05:16:13;101537.75;;;-2.07;80.76
35577;BME280;21680;52.400;16.920;2023-01-29T05:18:41;101530.57;;;-2.06;81.03
35577;BME280;21680;52.400;16.920;2023-01-29T05:21:08;101525.49;;;-2.06;81.08
35577;BME280;21680;52.400;16.920;2023-01-29T05:23:34;101523.05;;;-2.06;81.29
35577;BME280;21680;52.400;16.920;2023-01-29T05:26:00;101529.26;;;-2.03;81.15
35577;BME280;21680;52.400;16.920;2023-01-29T05:28:25;101531.20;;;-2.02;81.18
35577;BME280;21680;52.400;16.920;2023-01-29T05:30:53;101541.61;;;-1.98;81.23
35577;BME280;21680;52.400;16.920;2023-01-29T05:33:27;101545.15;;;-1.96;81.34
35577;BME280;21680;52.400;16.920;2023-01-29T05:35:53;101531.69;;;-1.95;81.23
35577;BME280;21680;52.400;16.920;2023-01-29T05:38:20;101529.83;;;-1.92;81.37
35577;BME280;21680;52.400;16.920;2023-01-29T05:40:46;101528.52;;;-1.88;81.20
35577;BME280;21680;52.400;16.920;2023-01-29T05:43:22;101526.10;;;-1.86;81.39
35577;BME280;21680;52.400;16.920;2023-01-29T05:45:58;101530.50;;;-1.85;81.40
35577;BME280;21680;52.400;16.920;2023-01-29T05:48:26;101537.70;;;-1.84;81.38
35577;BME280;21680;52.400;16.920;2023-01-29T05:50:53;101544.76;;;-1.82;81.34
35577;BME280;21680;52.400;16.920;2023-01-29T05:53:18;101550.59;;;-1.79;81.73
35577;BME280;21680;52.400;16.920;2023-01-29T05:55:45;101549.05;;;-1.78;81.45
35577;BME280;21680;52.400;16.920;2023-01-29T05:58:11;101540.63;;;-1.79;81.74
35577;BME280;21680;52.400;16.920;2023-01-29T06:00:37;101540.30;;;-1.77;81.43
35577;BME280;21680;52.400;16.920;2023-01-29T06:03:02;101539.46;;;-1.76;81.55
35577;BME280;21680;52.400;16.920;2023-01-29T06:05:27;101532.63;;;-1.77;81.58
35577;BME280;21680;52.400;16.920;2023-01-29T06:07:53;101541.37;;;-1.77;81.57
35577;BME280;21680;52.400;16.920;2023-01-29T06:10:18;101547.83;;;-1.77;81.47
35577;BME280;21680;52.400;16.920;2023-01-29T06:12:44;101554.14;;;-1.78;81.57
35577;BME280;21680;52.400;16.920;2023-01-29T06:15:11;101563.36;;;-1.80;81.56
35577;BME280;21680;52.400;16.920;2023-01-29T06:17:37;101564.73;;;-1.82;81.73
35577;BME280;21680;52.400;16.920;2023-01-29T06:20:03;101561.48;;;-1.86;81.65
35577;BME280;21680;52.400;16.920;2023-01-29T06:22:29;101559.98;;;-1.90;81.90
35577;BME280;21680;52.400;16.920;2023-01-29T06:24:54;101549.40;;;-1.94;81.83
35577;BME280;21680;52.400;16.920;2023-01-29T06:27:20;101547.71;;;-1.99;81.82
35577;BME280;21680;52.400;16.920;2023-01-29T06:29:45;101551.33;;;-2.02;81.81
35577;BME280;21680;52.400;16.920;2023-01-29T06:32:10;101555.98;;;-2.05;81.94
35577;BME280;21680;52.400;16.920;2023-01-29T06:34:36;101565.60;;;-2.07;82.16
35577;BME280;21680;52.400;16.920;2023-01-29T06:37:01;101575.04;;;-2.07;82.15
35577;BME280;21680;52.400;16.920;2023-01-29T06:39:26;101575.88;;;-2.09;82.15
35577;BME280;21680;52.400;16.920;2023-01-29T06:41:51;101575.70;;;-2.09;82.45
35577;BME280;21680;52.400;16.920;2023-01-29T06:44:17;101578.16;;;-2.08;82.39
35577;BME280;21680;52.400;16.920;2023-01-29T06:46:42;101571.66;;;-2.09;82.68
35577;BME280;21680;52.400;16.920;2023-01-29T06:49:07;101577.77;;;-2.10;82.56
35577;BME280;21680;52.400;16.920;2023-01-29T06:51:33;101574.59;;;-2.11;82.69
35577;BME280;21680;52.400;16.920;2023-01-29T06:53:58;101578.11;;;-2.10;82.66
35577;BME280;21680;52.400;16.920;2023-01-29T06:56:24;101569.71;;;-2.10;82.98
35577;BME280;21680;52.400;16.920;2023-01-29T06:58:49;101572.20;;;-2.09;83.10
35577;BME280;21680;52.400;16.920;2023-01-29T07:01:15;101563.98;;;-2.08;83.39
35577;BME280;21680;52.400;16.920;2023-01-29T07:03:40;101560.84;;;-2.07;83.15
35577;BME280;21680;52.400;16.920;2023-01-29T07:06:06;101558.23;;;-2.07;83.46
35577;BME280;21680;52.400;16.920;2023-01-29T07:08:38;101557.39;;;-2.06;83.52
35577;BME280;21680;52.400;16.920;2023-01-29T07:11:05;101552.00;;;-2.03;83.88
35577;BME280;21680;52.400;16.920;2023-01-29T07:13:30;101545.21;;;-2.02;83.96
35577;BME280;21680;52.400;16.920;2023-01-29T07:15:57;101542.79;;;-2.00;83.78
35577;BME280;21680;52.400;16.920;2023-01-29T07:18:23;101545.67;;;-1.97;84.17
35577;BME280;21680;52.400;16.920;2023-01-29T07:20:49;101543.80;;;-1.94;84.10
35577;BME280;21680;52.400;16.920;2023-01-29T07:23:14;101547.89;;;-1.91;84.00
35577;BME280;21680;52.400;16.920;2023-01-29T07:25:40;101544.27;;;-1.88;84.25
35577;BME280;21680;52.400;16.920;2023-01-29T07:28:06;101535.92;;;-1.86;84.20
35577;BME280;21680;52.400;16.920;2023-01-29T07:30:32;101532.29;;;-1.83;84.20
35577;BME280;21680;52.400;16.920;2023-01-29T07:33:05;101533.36;;;-1.82;84.28
35577;BME280;21680;52.400;16.920;2023-01-29T07:35:31;101524.45;;;-1.81;84.47
35577;BME280;21680;52.400;16.920;2023-01-29T07:37:57;101519.77;;;-1.79;84.68
35577;BME280;21680;52.400;16.920;2023-01-29T07:40:22;101525.75;;;-1.78;84.56
35577;BME280;21680;52.400;16.920;2023-01-29T07:42:47;101524.71;;;-1.77;84.77
35577;BME280;21680;52.400;16.920;2023-01-29T07:45:13;101524.04;;;-1.76;84.57
35577;BME280;21680;52.400;16.920;2023-01-29T07:47:38;101521.77;;;-1.76;84.82
35577;BME280;21680;52.400;16.920;2023-01-29T07:50:04;101525.42;;;-1.77;84.98
35577;BME280;21680;52.400;16.920;2023-01-29T07:52:31;101524.05;;;-1.76;85.01
35577;BME280;21680;52.400;16.920;2023-01-29T07:54:57;101527.26;;;-1.73;85.28
35577;BME280;21680;52.400;16.920;2023-01-29T07:57:22;101535.02;;;-1.71;85.01
35577;BME280;21680;52.400;16.920;2023-01-29T07:59:48;101532.08;;;-1.69;85.34
35577;BME280;21680;52.400;16.920;2023-01-29T08:02:13;101535.81;;;-1.66;85.32
35577;BME280;21680;52.400;16.920;2023-01-29T08:04:39;101542.54;;;-1.62;85.30
35577;BME280;21680;52.400;16.920;2023-01-29T08:07:04;101541.35;;;-1.60;85.57
35577;BME280;21680;52.400;16.920;2023-01-29T08:09:30;101554.37;;;-1.58;85.67
35577;BME280;21680;52.400;16.920;2023-01-29T08:11:56;101556.11;;;-1.59;85.75
35577;BME280;21680;52.400;16.920;2023-01-29T08:14:22;101552.67;;;-1.55;85.90
35577;BME280;21680;52.400;16.920;2023-01-29T08:16:48;101556.08;;;-1.51;85.98
35577;BME280;21680;52.400;16.920;2023-01-29T08:19:14;101552.98;;;-1.49;86.31
35577;BME280;21680;52.400;16.920;2023-01-29T08:21:39;101552.67;;;-1.47;86.15
35577;BME280;21680;52.400;16.920;2023-01-29T08:24:04;101557.04;;;-1.48;86.27
35577;BME280;21680;52.400;16.920;2023-01-29T08:26:30;101551.86;;;-1.44;86.40
35577;BME280;21680;52.400;16.920;2023-01-29T08:28:55;101551.04;;;-1.41;86.45
35577;BME280;21680;52.400;16.920;2023-01-29T08:31:20;101547.42;;;-1.38;86.55
35577;BME280;21680;52.400;16.920;2023-01-29T08:33:45;101542.27;;;-1.32;86.51
35577;BME280;21680;52.400;16.920;2023-01-29T08:36:11;101539.52;;;-1.30;86.72
35577;BME280;21680;52.400;16.920;2023-01-29T08:38:36;101529.73;;;-1.28;86.67
35577;BME280;21680;52.400;16.920;2023-01-29T08:41:02;101525.39;;;-1.25;86.52
35577;BME280;21680;52.400;16.920;2023-01-29T08:43:27;101513.30;;;-1.26;86.73
35577;BME280;21680;52.400;16.920;2023-01-29T08:45:53;101500.02;;;-1.23;86.72
35577;BME280;21680;52.400;16.920;2023-01-29T08:48:18;101497.95;;;-1.21;86.84
35577;BME280;21680;52.400;16.920;2023-01-29T08:50:43;101495.20;;;-1.18;86.74
35577;BME280;21680;52.400;16.920;2023-01-29T08:53:09;101487.88;;;-1.15;86.79
35577;BME280;21680;52.400;16.920;2023-01-29T08:55:37;101487.69;;;-1.16;86.80
35577;BME280;21680;52.400;16.920;2023-01-29T08:58:04;101493.58;;;-1.20;86.86
35577;BME280;21680;52.400;16.920;2023-01-29T09:00:30;101495.50;;;-1.21;86.94
35577;BME280;21680;52.400;16.920;2023-01-29T09:02:56;101497.45;;;-1.19;87.19
35577;BME280;21680;52.400;16.920;2023-01-29T09:05:23;101493.11;;;-1.17;87.25
35577;BME280;21680;52.400;16.920;2023-01-29T09:07:49;101484.15;;;-1.18;87.10
35577;BME280;21680;52.400;16.920;2023-01-29T09:10:14;101482.06;;;-1.17;87.13
35577;BME280;21680;52.400;16.920;2023-01-29T09:12:40;101486.16;;;-1.13;87.36
35577;BME280;21680;52.400;16.920;2023-01-29T09:15:05;101491.13;;;-1.10;87.43
35577;BME280;21680;52.400;16.920;2023-01-29T09:17:31;101495.86;;;-1.10;87.33
35577;BME280;21680;52.400;16.920;2023-01-29T09:19:56;101493.73;;;-1.12;87.57
35577;BME280;21680;52.400;16.920;2023-01-29T09:22:22;101496.73;;;-1.11;87.51
35577;BME280;21680;52.400;16.920;2023-01-29T09:24:48;101495.73;;;-1.08;87.60
35577;BME280;21680;52.400;16.920;2023-01-29T09:27:13;101493.45;;;-1.08;87.60
35577;BME280;21680;52.400;16.920;2023-01-29T09:29:38;101495.20;;;-1.07;87.91
35577;BME280;21680;52.400;16.920;2023-01-29T09:32:04;101490.49;;;-1.06;87.81
35577;BME280;21680;52.400;16.920;2023-01-29T09:34:29;101492.79;;;-1.05;87.87
35577;BME280;21680;52.400;16.920;2023-01-29T09:36:54;101500.05;;;-1.01;87.80
35577;BME280;21680;52.400;16.920;2023-01-29T09:39:20;101500.63;;;-0.99;87.70
35577;BME280;21680;52.400;16.920;2023-01-29T09:42:00;101500.83;;;-0.97;87.83
35577;BME280;21680;52.400;16.920;2023-01-29T09:47:16;101491.77;;;-0.93;88.03
35577;BME280;21680;52.400;16.920;2023-01-29T09:49:48;101489.72;;;-0.90;88.06
35577;BME280;21680;52.400;16.920;2023-01-29T09:52:21;101492.89;;;-0.89;88.13
35577;BME280;21680;52.400;16.920;2023-01-29T09:55:11;101490.36;;;-0.94;88.22
35577;BME280;21680;52.400;16.920;2023-01-29T09:57:48;101498.91;;;-0.96;88.20
35577;BME280;21680;52.400;16.920;2023-01-29T10:00:19;101495.25;;;-0.94;88.33
35577;BME280;21680;52.400;16.920;2023-01-29T10:05:57;101493.06;;;-0.89;88.29
35577;BME280;21680;52.400;16.920;2023-01-29T10:11:41;101479.58;;;-0.89;88.38
35577;BME280;21680;52.400;16.920;2023-01-29T10:14:18;101473.46;;;-0.86;88.53
35577;BME280;21680;52.400;16.920;2023-01-29T10:19:44;101461.68;;;-0.88;88.63
35577;BME280;21680;52.400;16.920;2023-01-29T10:24:59;101452.95;;;-0.85;88.55
35577;BME280;21680;52.400;16.920;2023-01-29T10:27:32;101453.11;;;-0.86;88.76
35577;BME280;21680;52.400;16.920;2023-01-29T10:29:59;101446.27;;;-0.86;88.86
35577;BME280;21680;52.400;16.920;2023-01-29T10:32:26;101450.84;;;-0.86;88.82
35577;BME280;21680;52.400;16.920;2023-01-29T10:37:25;101432.23;;;-0.86;88.83
35577;BME280;21680;52.400;16.920;2023-01-29T10:39:56;101430.27;;;-0.88;88.87
35577;BME280;21680;52.400;16.920;2023-01-29T10:42:36;101430.65;;;-0.87;89.04
35577;BME280;21680;52.400;16.920;2023-01-29T10:45:25;101429.84;;;-0.82;89.13
35577;BME280;21680;52.400;16.920;2023-01-29T10:59:05;101393.88;;;-0.70;89.00
35577;BME280;21680;52.400;16.920;2023-01-29T11:01:35;101393.36;;;-0.69;89.25
35577;BME280;21680;52.400;16.920;2023-01-29T11:04:03;101399.35;;;-0.68;89.28
35577;BME280;21680;52.400;16.920;2023-01-29T11:06:33;101396.43;;;-0.63;89.44
35577;BME280;21680;52.400;16.920;2023-01-29T11:11:46;101392.60;;;-0.61;89.18
35577;BME280;21680;52.400;16.920;2023-01-29T11:14:21;101393.51;;;-0.59;89.17
35577;BME280;21680;52.400;16.920;2023-01-29T11:16:48;101394.41;;;-0.57;89.34
35577;BME280;21680;52.400;16.920;2023-01-29T11:19:15;101403.19;;;-0.57;89.15
35577;BME280;21680;52.400;16.920;2023-01-29T11:21:56;101396.36;;;-0.56;89.27
35577;BME280;21680;52.400;16.920;2023-01-29T11:24:23;101384.40;;;-0.58;89.24
35577;BME280;21680;52.400;16.920;2023-01-29T11:26:51;101381.78;;;-0.56;89.26
35577;BME280;21680;52.400;16.920;2023-01-29T11:29:30;101378.46;;;-0.55;89.33
35577;BME280;21680;52.400;16.920;2023-01-29T11:31:58;101373.55;;;-0.56;89.35
35577;BME280;21680;52.400;16.920;2023-01-29T11:34:24;101378.98;;;-0.56;89.58
35577;BME280;21680;52.400;16.920;2023-01-29T11:36:58;101374.94;;;-0.56;89.37
35577;BME280;21680;52.400;16.920;2023-01-29T11:39:26;101374.43;;;-0.55;89.39
35577;BME280;21680;52.400;16.920;2023-01-29T11:41:54;101360.42;;;-0.53;89.48
35577;BME280;21680;52.400;16.920;2023-01-29T11:44:32;101351.00;;;-0.48;89.51
35577;BME280;21680;52.400;16.920;2023-01-29T11:49:49;101341.73;;;-0.46;89.38
35577;BME280;21680;52.400;16.920;2023-01-29T11:52:18;101327.86;;;-0.46;89.60
35577;BME280;21680;52.400;16.920;2023-01-29T11:57:28;101324.40;;;-0.41;89.60
35577;BME280;21680;52.400;16.920;2023-01-29T11:59:57;101320.39;;;-0.39;89.53
35577;BME280;21680;52.400;16.920;2023-01-29T12:02:41;101316.59;;;-0.33;89.56
35577;BME280;21680;52.400;16.920;2023-01-29T12:05:17;101312.37;;;-0.34;89.35
35577;BME280;21680;52.400;16.920;2023-01-29T12:07:46;101301.27;;;-0.38;89.35
35577;BME280;21680;52.400;16.920;2023-01-29T12:10:31;101301.11;;;-0.36;89.63
35577;BME280;21680;52.400;16.920;2023-01-29T12:13:10;101305.19;;;-0.33;89.54
35577;BME280;21680;52.400;16.920;2023-01-29T12:15:45;101304.30;;;-0.32;89.57
35577;BME280;21680;52.400;16.920;2023-01-29T12:23:34;101298.39;;;-0.28;89.58
35577;BME280;21680;52.400;16.920;2023-01-29T12:26:10;101294.56;;;-0.24;89.60
35577;BME280;21680;52.400;16.920;2023-01-29T12:31:49;101295.60;;;-0.25;89.46
35577;BME280;21680;52.400;16.920;2023-01-29T12:36:57;101292.78;;;-0.27;89.82
35577;BME280;21680;52.400;16.920;2023-01-29T12:39:24;101285.58;;;-0.28;89.62
35577;BME280;21680;52.400;16.920;2023-01-29T12:46:50;101280.47;;;-0.29;89.55
35577;BME280;21680;52.400;16.920;2023-01-29T12:49:32;101285.56;;;-0.29;89.63
35577;BME280;21680;52.400;16.920;2023-01-29T12:54:43;101273.90;;;-0.35;89.64
35577;BME280;21680;52.400;16.920;2023-01-29T12:57:23;101276.73;;;-0.35;89.64
35577;BME280;21680;52.400;16.920;2023-01-29T13:00:02;101273.71;;;-0.36;89.70
35577;BME280;21680;52.400;16.920;2023-01-29T13:05:33;101272.33;;;-0.35;89.78
35577;BME280;21680;52.400;16.920;2023-01-29T13:08:08;101265.31;;;-0.35;89.95
35577;BME280;21680;52.400;16.920;2023-01-29T13:10:37;101267.77;;;-0.34;89.79
35577;BME280;21680;52.400;16.920;2023-01-29T13:13:14;101257.77;;;-0.33;89.63
35577;BME280;21680;52.400;16.920;2023-01-29T13:15:43;101249.00;;;-0.32;89.74
35577;BME280;21680;52.400;16.920;2023-01-29T13:18:42;101246.20;;;-0.31;89.67
35577;BME280;21680;52.400;16.920;2023-01-29T13:21:17;101244.61;;;-0.32;89.78
35577;BME280;21680;52.400;16.920;2023-01-29T13:23:56;101237.77;;;-0.32;89.76
35577;BME280;21680;52.400;16.920;2023-01-29T13:26:24;101239.20;;;-0.29;89.86
35577;BME280;21680;52.400;16.920;2023-01-29T13:28:51;101236.94;;;-0.27;89.70
35577;BME280;21680;52.400;16.920;2023-01-29T13:34:22;101236.23;;;-0.28;89.69
35577;BME280;21680;52.400;16.920;2023-01-29T13:36:51;101239.58;;;-0.26;89.80
35577;BME280;21680;52.400;16.920;2023-01-29T13:39:36;101240.96;;;-0.28;90.00
35577;BME280;21680;52.400;16.920;2023-01-29T13:42:38;101236.23;;;-0.28;89.93
35577;BME280;21680;52.400;16.920;2023-01-29T13:45:07;101243.41;;;-0.29;89.97
35577;BME280;21680;52.400;16.920;2023-01-29T13:47:35;101239.19;;;-0.29;89.86
35577;BME280;21680;52.400;16.920;2023-01-29T13:50:06;101238.33;;;-0.28;89.93
35577;BME280;21680;52.400;16.920;2023-01-29T13:52:43;101234.98;;;-0.29;89.94
35577;BME280;21680;52.400;16.920;2023-01-29T14:00:05;101232.71;;;-0.28;90.07
35577;BME280;21680;52.400;16.920;2023-01-29T14:02:30;101231.66;;;-0.28;90.15
35577;BME280;21680;52.400;16.920;2023-01-29T14:07:53;101225.34;;;-0.28;90.04
35577;BME280;21680;52.400;16.920;2023-01-29T14:10:20;101224.80;;;-0.29;90.17
35577;BME280;21680;52.400;16.920;2023-01-29T14:15:35;101224.12;;;-0.27;90.19
35577;BME280;21680;52.400;16.920;2023-01-29T14:20:40;101218.32;;;-0.27;90.18
35577;BME280;21680;52.400;16.920;2023-01-29T14:25:45;101222.00;;;-0.28;90.35
35577;BME280;21680;52.400;16.920;2023-01-29T14:28:15;101213.73;;;-0.29;90.28
35577;BME280;21680;52.400;16.920;2023-01-29T14:30:47;101208.10;;;-0.31;90.37
35577;BME280;21680;52.400;16.920;2023-01-29T14:33:37;101200.54;;;-0.31;90.33
35577;BME280;21680;52.400;16.920;2023-01-29T14:36:08;101200.00;;;-0.34;90.51
35577;BME280;21680;52.400;16.920;2023-01-29T14:38:35;101212.63;;;-0.35;90.53
35577;BME280;21680;52.400;16.920;2023-01-29T14:41:11;101212.96;;;-0.37;90.71
35577;BME280;21680;52.400;16.920;2023-01-29T14:43:39;101212.77;;;-0.38;90.74
35577;BME280;21680;52.400;16.920;2023-01-29T14:48:59;101209.77;;;-0.39;90.94
35577;BME280;21680;52.400;16.920;2023-01-29T14:51:26;101206.09;;;-0.40;90.90